Time;durP1;ratioP1;P1;durP2;ratioP2;P2;SDS_P1;SDS_P2;PMS_P1;PMS_P2;Temp;Humidity;BMP_temperature;BMP_pressure;BME280_temperature;BME280_humidity;BME280_pressure;Samples;Min_cycle;Max_cycle;Signal;HPM_P1;HPM_P2
2022/08/21 00:02:17;;;;;;;9.60;7.30;;;;;;;19.48;82.99;96793.69;109721;1249;59757;-72
2022/08/21 00:04:48;;;;;;;13.30;8.30;;;;;;;19.51;81.56;96793.00;110143;1247;59693;-72
2022/08/21 00:07:26;;;;;;;11.00;8.30;;;;;;;19.50;82.22;96793.18;110089;1247;71352;-73
2022/08/21 00:09:55;;;;;;;11.10;8.10;;;;;;;19.44;83.58;96787.19;109981;1247;69486;-72
2022/08/21 00:12:25;;;;;;;12.90;8.10;;;;;;;19.40;83.66;96786.02;109979;1249;69493;-73
2022/08/21 00:14:54;;;;;;;;;;;;;;;19.34;83.22;96788.48;109877;1250;59781;-71
2022/08/21 00:17:26;;;;;;;9.20;7.80;;;;;;;19.28;85.14;96782.31;110049;1247;59675;-73
2022/08/21 00:19:56;;;;;;;10.60;8.30;;;;;;;19.26;85.72;96785.91;110034;1247;71511;-73
2022/08/21 00:22:26;;;;;;;9.00;7.70;;;;;;;19.25;85.10;96787.04;110053;1247;69423;-75
2022/08/21 00:24:55;;;;;;;11.40;7.90;;;;;;;19.26;85.87;96786.03;110088;1247;69463;-73
2022/08/21 00:27:25;;;;;;;10.00;8.60;;;;;;;19.26;85.93;96786.03;110176;1247;59739;-73
2022/08/21 00:29:55;;;;;;;11.80;8.70;;;;;;;19.27;85.72;96788.36;110112;1247;59684;-72
2022/08/21 00:32:27;;;;;;;13.80;8.50;;;;;;;19.28;85.13;96788.34;110054;1247;71401;-72
2022/08/21 00:34:56;;;;;;;11.60;8.40;;;;;;;19.26;84.92;96781.40;110061;1246;69527;-73
2022/08/21 00:37:26;;;;;;;;;;;;;;;19.27;86.48;96778.55;110097;1247;68928;-72
2022/08/21 00:39:58;;;;;;;9.10;7.00;;;;;;;19.29;86.37;96771.73;110029;1250;59693;-73
2022/08/21 00:42:30;;;;;;;11.60;7.80;;;;;;;19.31;86.31;96771.34;110045;1248;59681;-72
2022/08/21 00:44:59;;;;;;;9.30;6.50;;;;;;;19.33;86.23;96775.10;109778;1250;70947;-71
2022/08/21 00:47:28;;;;;;;9.40;7.50;;;;;;;19.35;84.92;96769.41;109902;1249;68868;-72
2022/08/21 00:49:57;;;;;;;9.30;7.20;;;;;;;19.38;85.34;96768.27;109712;1249;68757;-72
2022/08/21 00:52:31;;;;;;;10.80;7.60;;;;;;;19.39;84.59;96771.83;109785;1250;59691;-71
2022/08/21 00:55:03;;;;;;;11.80;8.00;;;;;;;19.40;85.20;96778.04;110017;1249;59681;-71
2022/08/21 00:57:45;;;;;;;11.10;8.00;;;;;;;19.41;85.50;96774.45;109666;1250;70791;-73
2022/08/21 01:00:24;;;;;;;11.30;8.00;;;;;;;19.40;86.13;96774.04;109835;1249;68635;-72
2022/08/21 01:02:56;;;;;;;10.70;8.20;;;;;;;19.38;86.00;96771.33;109726;1250;69589;-73
2022/08/21 01:05:26;;;;;;;10.70;8.30;;;;;;;19.36;85.79;96778.35;109842;1249;59758;-73
2022/08/21 01:07:59;;;;;;;9.30;7.00;;;;;;;19.34;85.46;96779.59;109895;1249;59833;-72
2022/08/21 01:10:30;;;;;;;10.30;6.80;;;;;;;19.32;85.35;96783.76;110515;1247;70785;-72
2022/08/21 01:13:04;;;;;;;11.60;7.80;;;;;;;19.28;85.55;96783.18;110652;1247;67961;-73
2022/08/21 01:15:39;;;;;;;9.90;7.70;;;;;;;19.24;85.91;96775.33;109796;1250;67538;-72
2022/08/21 01:18:11;;;;;;;10.10;7.70;;;;;;;19.20;85.02;96771.92;110095;1247;59766;-72
2022/08/21 01:20:58;;;;;;;10.90;6.90;;;;;;;19.14;85.70;96764.50;110099;1247;59665;-72
2022/08/21 01:23:28;;;;;;;7.50;6.10;;;;;;;19.07;84.60;96763.54;109861;1250;70840;-72
2022/08/21 01:25:58;;;;;;;12.00;7.20;;;;;;;19.02;82.67;96762.55;109887;1248;69396;-72
2022/08/21 01:28:34;;;;;;;8.30;6.70;;;;;;;18.96;84.25;96756.46;109844;1250;69550;-73
2022/08/21 01:31:07;;;;;;;12.50;8.70;;;;;;;18.86;86.32;96753.50;109840;1250;59732;-72
2022/08/21 01:33:38;;;;;;;12.10;7.90;;;;;;;18.81;85.39;96751.55;110052;1248;59748;-70
2022/08/21 01:36:07;;;;;;;11.00;7.90;;;;;;;18.78;85.19;96751.27;110028;1249;71530;-71
2022/08/21 01:38:38;;;;;;;10.00;7.50;;;;;;;18.74;86.13;96754.37;110096;1247;69388;-73
2022/08/21 01:41:10;;;;;;;9.50;6.90;;;;;;;18.70;86.65;96760.28;110067;1247;68694;-71
2022/08/21 01:43:42;;;;;;;11.30;7.20;;;;;;;18.67;84.94;96760.45;110057;1247;59692;-73
2022/08/21 01:46:12;;;;;;;11.80;7.50;;;;;;;18.63;83.28;96755.66;110099;1247;60094;-71
2022/08/21 01:48:42;;;;;;;11.50;6.90;;;;;;;18.58;82.87;96757.24;109819;1250;71760;-71
2022/08/21 01:51:12;;;;;;;10.30;7.80;;;;;;;18.53;82.62;96754.27;109729;1250;69516;-73
2022/08/21 01:53:44;;;;;;;10.30;8.10;;;;;;;18.49;85.05;96750.37;109880;1247;68099;-72
2022/08/21 01:56:16;;;;;;;13.10;8.50;;;;;;;18.45;87.26;96750.54;110049;1247;60191;-72
2022/08/21 01:58:47;;;;;;;14.60;8.10;;;;;;;18.41;87.48;96750.98;109650;1250;59771;-72
2022/08/21 02:01:17;;;;;;;9.10;7.30;;;;;;;18.37;87.06;96756.24;109724;1250;71607;-71
2022/08/21 02:03:47;;;;;;;9.70;6.80;;;;;;;18.34;85.69;96758.44;110027;1248;69271;-72
2022/08/21 02:06:18;;;;;;;11.20;8.10;;;;;;;18.33;87.34;96756.57;110030;1248;69420;-70
2022/08/21 02:08:50;;;;;;;11.20;8.00;;;;;;;18.31;87.77;96762.31;109949;1247;59756;-72
2022/08/21 02:11:21;;;;;;;10.90;8.80;;;;;;;18.28;87.86;96759.80;110051;1247;59773;-72
2022/08/21 02:13:53;;;;;;;10.70;8.50;;;;;;;18.26;88.82;96754.42;109705;1249;71002;-72
2022/08/21 02:16:25;;;;;;;12.10;7.70;;;;;;;18.24;88.97;96757.81;110009;1248;68593;-71
2022/08/21 02:18:55;;;;;;;10.40;7.70;;;;;;;18.21;89.18;96755.48;109895;1248;68511;-72
2022/08/21 02:21:25;;;;;;;9.10;7.30;;;;;;;18.16;88.42;96750.42;110019;1249;59742;-71
2022/08/21 02:23:56;;;;;;;10.60;7.40;;;;;;;18.11;88.95;96745.92;110024;1250;59759;-71
2022/08/21 02:26:27;;;;;;;9.60;7.10;;;;;;;18.07;88.39;96739.27;110005;1247;70747;-72
2022/08/21 02:28:58;;;;;;;8.50;7.00;;;;;;;18.05;88.07;96736.58;109896;1247;69344;-73
2022/08/21 02:31:31;;;;;;;9.20;6.90;;;;;;;18.02;87.52;96742.11;109632;1250;68672;-72
2022/08/21 02:34:01;;;;;;;11.30;8.20;;;;;;;18.01;89.09;96740.16;109869;1248;59696;-72
2022/08/21 02:36:32;;;;;;;11.00;7.90;;;;;;;18.00;89.34;96745.60;110034;1249;59749;-71
2022/08/21 02:39:03;;;;;;;11.70;7.30;;;;;;;17.99;87.35;96746.70;110070;1249;70569;-72
2022/08/21 02:41:32;;;;;;;11.00;7.30;;;;;;;18.00;85.77;96750.65;109879;1247;68575;-71
2022/08/21 02:44:02;;;;;;;10.60;8.00;;;;;;;18.00;84.97;96759.35;109880;1248;69544;-73
2022/08/21 02:46:34;;;;;;;11.70;9.30;;;;;;;17.99;85.64;96766.69;110083;1248;59613;-73
2022/08/21 02:49:04;;;;;;;11.10;7.50;;;;;;;17.95;87.24;96760.56;109669;1250;59764;-73
2022/08/21 02:51:34;;;;;;;10.30;7.30;;;;;;;17.96;87.98;96757.48;110080;1247;70603;-73
2022/08/21 02:54:04;;;;;;;10.00;7.80;;;;;;;17.97;89.13;96759.13;109651;1249;68483;-73
2022/08/21 02:56:36;;;;;;;9.10;7.80;;;;;;;17.96;89.08;96762.77;109868;1250;69433;-74
2022/08/21 02:59:06;;;;;;;9.20;7.40;;;;;;;17.96;89.13;96764.85;109877;1250;59676;-71
2022/08/21 03:01:37;;;;;;;11.70;9.00;;;;;;;17.99;89.08;96764.51;110109;1249;59644;-69
2022/08/21 03:04:07;;;;;;;9.00;7.50;;;;;;;18.02;90.26;96761.02;109928;1249;70882;-72
2022/08/21 03:06:37;;;;;;;12.20;8.40;;;;;;;18.05;89.78;96762.05;110001;1250;69476;-74
2022/08/21 03:09:08;;;;;;;12.00;7.90;;;;;;;18.11;90.68;96763.17;110168;1250;68493;-73
2022/08/21 03:11:40;;;;;;;9.40;7.10;;;;;;;18.14;89.78;96763.89;110368;1250;59755;-72
2022/08/21 03:14:11;;;;;;;11.00;9.00;;;;;;;18.18;89.84;96763.40;110050;1249;59754;-71
2022/08/21 03:16:44;;;;;;;11.60;8.50;;;;;;;18.21;90.08;96759.27;110214;1250;71541;-71
2022/08/21 03:19:15;;;;;;;9.50;8.20;;;;;;;18.26;89.89;96762.17;109960;1250;68882;-73
2022/08/21 03:21:46;;;;;;;12.00;8.80;;;;;;;18.32;89.88;96765.50;109912;1249;69403;-72
2022/08/21 03:24:17;;;;;;;9.50;8.10;;;;;;;18.38;89.61;96766.85;109969;1249;59749;-72
2022/08/21 03:26:51;;;;;;;12.80;8.30;;;;;;;18.39;89.46;96764.20;109927;1249;59758;-72
2022/08/21 03:29:22;;;;;;;12.60;9.80;;;;;;;18.38;89.34;96763.52;109904;1249;71775;-73
2022/08/21 03:31:53;;;;;;;11.10;8.40;;;;;;;18.34;88.29;96762.31;110013;1249;68679;-73
2022/08/21 03:34:23;;;;;;;12.50;8.30;;;;;;;18.26;89.64;96758.43;110016;1249;69787;-72
2022/08/21 03:36:52;;;;;;;12.10;8.50;;;;;;;18.25;90.09;96761.55;110023;1249;59762;-72
2022/08/21 03:39:23;;;;;;;9.50;8.00;;;;;;;18.25;88.33;96757.90;109955;1249;59732;-72
2022/08/21 03:41:53;;;;;;;15.30;10.80;;;;;;;18.24;87.62;96760.74;109755;1250;70704;-72
2022/08/21 03:44:24;;;;;;;13.80;9.70;;;;;;;18.24;89.85;96763.43;109857;1249;68711;-71
2022/08/21 03:46:53;;;;;;;11.70;9.70;;;;;;;18.23;90.41;96763.17;109924;1249;69262;-71
2022/08/21 03:49:25;;;;;;;10.80;8.00;;;;;;;18.22;90.46;96767.56;109714;1250;59770;-73
2022/08/21 03:51:55;;;;;;;12.60;9.30;;;;;;;18.21;90.05;96774.38;109890;1250;59767;-73
2022/08/21 03:54:27;;;;;;;13.00;9.10;;;;;;;18.21;90.36;96777.35;109882;1250;71739;-72
2022/08/21 03:56:58;;;;;;;12.20;9.40;;;;;;;18.23;89.40;96781.86;110036;1247;68602;-72
2022/08/21 03:59:28;;;;;;;14.70;9.70;;;;;;;18.25;88.03;96788.92;110132;1247;68577;-73
2022/08/21 04:02:01;;;;;;;11.50;8.60;;;;;;;18.24;88.22;96788.14;109865;1248;59742;-72
2022/08/21 04:04:32;;;;;;;12.50;9.30;;;;;;;18.26;88.56;96785.29;110070;1247;59718;-73
2022/08/21 04:07:02;;;;;;;16.80;10.50;;;;;;;18.30;88.35;96782.22;110051;1248;71619;-73
2022/08/21 04:09:32;;;;;;;13.70;8.70;;;;;;;18.34;90.15;96783.98;110003;1250;68643;-73
2022/08/21 04:12:02;;;;;;;11.60;9.00;;;;;;;18.38;90.16;96783.23;110188;1248;70071;-72
2022/08/21 04:14:32;;;;;;;10.40;7.90;;;;;;;18.41;89.97;96782.31;110157;1247;59751;-72
2022/08/21 04:17:02;;;;;;;13.70;10.00;;;;;;;18.46;89.93;96780.39;110092;1247;59628;-73
2022/08/21 04:19:31;;;;;;;10.90;9.60;;;;;;;18.53;90.36;96778.16;110146;1248;71674;-72
2022/08/21 04:22:00;;;;;;;11.50;8.30;;;;;;;18.61;89.82;96778.66;110102;1247;69607;-72
2022/08/21 04:24:30;;;;;;;11.00;8.20;;;;;;;18.70;87.94;96782.33;110050;1247;69487;-74
2022/08/21 04:26:59;;;;;;;10.60;7.70;;;;;;;18.77;86.81;96783.86;110119;1247;59729;-72
2022/08/21 04:29:28;;;;;;;11.30;9.00;;;;;;;18.83;86.72;96783.15;109989;1247;59759;-70
2022/08/21 04:31:59;;;;;;;11.00;8.60;;;;;;;18.91;87.35;96784.42;110046;1247;70712;-73
2022/08/21 04:34:28;;;;;;;9.50;7.70;;;;;;;18.95;85.47;96783.35;110042;1247;69076;-71
2022/08/21 04:36:57;;;;;;;14.30;8.00;;;;;;;18.99;85.03;96779.52;110033;1249;69461;-72
2022/08/21 04:39:26;;;;;;;11.60;9.10;;;;;;;19.00;86.14;96766.93;110099;1247;60066;-73
2022/08/21 04:41:57;;;;;;;12.90;8.90;;;;;;;19.03;87.31;96770.73;110165;1247;59697;-74
2022/08/21 04:44:27;;;;;;;11.20;8.30;;;;;;;19.11;87.00;96772.48;110096;1247;70722;-74
2022/08/21 04:46:57;;;;;;;10.40;7.70;;;;;;;19.20;85.69;96772.08;110019;1248;69992;-73
2022/08/21 04:49:26;;;;;;;;;;;;;;;19.28;85.38;96775.95;110143;1247;69217;-72
2022/08/21 04:52:01;;;;;;;13.20;9.90;;;;;;;19.33;85.95;96781.46;110146;1247;59718;-73
2022/08/21 04:54:31;;;;;;;10.80;7.90;;;;;;;19.35;85.44;96782.69;107863;1247;3051880;-74
2022/08/21 04:57:03;;;;;;;;;;;;;;;19.40;85.29;96780.70;109981;1247;70748;-71
2022/08/21 04:59:38;;;;;;;10.80;7.80;;;;;;;19.46;85.60;96782.69;110190;1247;68633;-72
2022/08/21 05:02:08;;;;;;;8.80;6.60;;;;;;;19.54;85.85;96780.20;110088;1247;69265;-73
2022/08/21 05:04:44;;;;;;;8.60;7.60;;;;;;;19.68;85.16;96784.81;110795;1246;59713;-73
2022/08/21 05:07:19;;;;;;;9.20;7.40;;;;;;;19.82;84.53;96784.91;110655;1247;59633;-72
2022/08/21 05:10:09;;;;;;;11.30;8.70;;;;;;;19.95;83.90;96784.88;110106;1248;72132;-71
2022/08/21 05:12:42;;;;;;;11.60;9.00;;;;;;;20.00;83.41;96788.44;109989;1247;69442;-70
2022/08/21 05:15:12;;;;;;;9.60;7.50;;;;;;;20.05;82.47;96795.00;110201;1247;69616;-69
2022/08/21 05:17:42;;;;;;;11.30;8.90;;;;;;;20.10;81.79;96796.89;110068;1247;59667;-72
2022/08/21 05:20:20;;;;;;;10.40;8.30;;;;;;;20.04;81.48;96794.80;110163;1248;59688;-72
2022/08/21 05:22:49;;;;;;;9.20;7.80;;;;;;;20.03;81.51;96796.29;110084;1247;71454;-70
2022/08/21 05:25:18;;;;;;;13.50;8.80;;;;;;;20.08;81.69;96794.88;109797;1248;69106;-72
2022/08/21 05:27:50;;;;;;;13.20;8.00;;;;;;;20.10;82.11;96793.05;110035;1247;69426;-75
2022/08/21 05:30:20;;;;;;;12.50;8.20;;;;;;;20.14;82.08;96793.92;110207;1247;59675;-71
2022/08/21 05:32:49;;;;;;;13.10;8.60;;;;;;;20.21;81.49;96796.73;110153;1247;59758;-73
2022/08/21 05:35:18;;;;;;;12.60;8.90;;;;;;;20.20;81.07;96789.83;110183;1248;71569;-71
2022/08/21 05:37:47;;;;;;;12.90;8.80;;;;;;;20.33;80.66;96781.71;110127;1247;69443;-72
2022/08/21 05:40:16;;;;;;;10.50;8.00;;;;;;;20.52;79.88;96778.65;110193;1248;70126;-70
2022/08/21 05:42:51;;;;;;;10.10;7.80;;;;;;;20.72;79.16;96781.33;110114;1247;59740;-72
2022/08/21 05:45:24;;;;;;;11.60;8.10;;;;;;;20.85;78.06;96779.16;110193;1248;59781;-71
2022/08/21 05:48:18;;;;;;;12.80;7.60;;;;;;;20.96;77.59;96785.20;110292;1247;71882;-71
2022/08/21 05:50:49;;;;;;;11.30;7.90;;;;;;;21.00;77.00;96788.05;110229;1247;69394;-70
2022/08/21 05:53:19;;;;;;;12.20;8.30;;;;;;;21.05;76.81;96791.58;110039;1247;69473;-72
2022/08/21 05:55:50;;;;;;;11.00;7.60;;;;;;;20.91;77.08;96791.51;110125;1247;59749;-70
2022/08/21 05:58:22;;;;;;;9.70;7.80;;;;;;;20.89;77.52;96787.36;109918;1249;59742;-68
2022/08/21 06:00:52;;;;;;;13.30;8.10;;;;;;;20.94;77.64;96789.89;110051;1247;70494;-68
2022/08/21 06:03:25;;;;;;;10.60;7.10;;;;;;;20.95;77.48;96788.56;110104;1247;70036;-72
2022/08/21 06:05:55;;;;;;;14.60;8.90;;;;;;;21.02;77.39;96787.88;110221;1247;68941;-72
2022/08/21 06:08:25;;;;;;;10.60;7.40;;;;;;;21.01;77.00;96789.98;109992;1250;59669;-69
2022/08/21 06:10:56;;;;;;;9.90;7.30;;;;;;;21.06;76.90;96789.27;110164;1248;59674;-70
2022/08/21 06:13:26;;;;;;;10.80;7.00;;;;;;;21.09;76.45;96784.61;110161;1247;71613;-68
2022/08/21 06:16:13;;;;;;;11.10;7.70;;;;;;;21.16;76.03;96786.80;109748;1250;69366;-69
2022/08/21 06:18:45;;;;;;;9.40;7.10;;;;;;;21.23;75.03;96779.94;110072;1247;69491;-70
2022/08/21 06:21:14;;;;;;;8.00;6.30;;;;;;;21.34;74.22;96782.64;110076;1247;59739;-70
2022/08/21 06:23:43;;;;;;;9.30;6.60;;;;;;;21.39;73.88;96781.95;110158;1247;59611;-70
2022/08/21 06:26:14;;;;;;;9.00;6.40;;;;;;;21.45;73.89;96779.09;110060;1247;72180;-69
2022/08/21 06:28:43;;;;;;;6.50;4.70;;;;;;;21.68;73.23;96776.25;110087;1248;69398;-69
2022/08/21 06:31:13;;;;;;;11.50;6.70;;;;;;;21.85;72.34;96779.67;109987;1247;67479;-68
2022/08/21 06:33:42;;;;;;;9.10;6.40;;;;;;;21.97;72.30;96785.14;110163;1247;60050;-67
2022/08/21 06:36:12;;;;;;;6.90;6.10;;;;;;;22.15;72.25;96787.45;109925;1250;59641;-69
2022/08/21 06:38:41;;;;;;;9.30;6.80;;;;;;;22.35;71.36;96793.20;110112;1247;71802;-70
2022/08/21 06:41:20;;;;;;;10.50;7.10;;;;;;;22.40;70.33;96789.40;109744;1249;68623;-68
2022/08/21 06:43:52;;;;;;;9.30;7.50;;;;;;;22.47;70.18;96789.02;110244;1247;68592;-70
2022/08/21 06:46:22;;;;;;;9.90;6.60;;;;;;;22.52;69.89;96789.04;110101;1250;59695;-67
2022/08/21 06:48:51;;;;;;;11.40;7.30;;;;;;;22.65;69.00;96786.02;110117;1247;59701;-70
2022/08/21 06:51:21;;;;;;;8.10;5.70;;;;;;;22.82;68.76;96785.52;110372;1247;71702;-68
2022/08/21 06:53:50;;;;;;;;;;;;;;;22.94;68.21;96786.95;110391;1247;69245;-69
2022/08/21 06:56:19;;;;;;;12.90;7.60;;;;;;;22.99;68.30;96789.86;110122;1247;69245;-71
2022/08/21 06:58:48;;;;;;;;;;;;;;;22.95;67.17;96790.13;110128;1247;59692;-69
2022/08/21 07:01:18;;;;;;;8.90;6.50;;;;;;;22.84;67.24;96792.56;110038;1248;59704;-70
2022/08/21 07:03:52;;;;;;;10.20;6.50;;;;;;;22.95;67.24;96791.95;110034;1247;71605;-69
2022/08/21 07:06:21;;;;;;;10.90;7.40;;;;;;;22.95;66.60;96791.36;109916;1250;68110;-71
2022/08/21 07:08:50;;;;;;;8.70;6.50;;;;;;;22.82;66.66;96791.54;110053;1250;70250;-71
2022/08/21 07:11:22;;;;;;;11.30;6.40;;;;;;;22.90;66.67;96787.09;110060;1248;59682;-71
2022/08/21 07:13:53;;;;;;;8.10;6.30;;;;;;;23.03;65.30;96781.90;110026;1250;59728;-70
2022/08/21 07:16:23;;;;;;;8.10;5.60;;;;;;;23.31;65.85;96780.16;110223;1247;71799;-69
2022/08/21 07:18:52;;;;;;;7.20;5.70;;;;;;;23.53;65.44;96780.86;110119;1247;70126;-71
2022/08/21 07:21:21;;;;;;;10.00;6.50;;;;;;;23.65;64.69;96781.02;110091;1248;69538;-69
2022/08/21 07:23:54;;;;;;;10.60;7.40;;;;;;;23.71;64.22;96780.70;110154;1247;59741;-68
2022/08/21 07:26:24;;;;;;;8.40;7.10;;;;;;;23.60;62.75;96773.47;110110;1246;59747;-68
2022/08/21 07:28:53;;;;;;;8.10;6.10;;;;;;;23.71;62.96;96775.39;110176;1247;71642;-69
2022/08/21 07:31:25;;;;;;;8.00;5.60;;;;;;;23.89;63.72;96779.52;110059;1248;69270;-68
2022/08/21 07:33:54;;;;;;;12.00;7.20;;;;;;;24.14;63.21;96775.23;110246;1247;69758;-68
2022/08/21 07:36:23;;;;;;;7.90;6.10;;;;;;;24.27;61.91;96776.48;110076;1247;59693;-68
2022/08/21 07:38:54;;;;;;;9.70;6.90;;;;;;;24.41;61.21;96771.27;110133;1247;59641;-68
2022/08/21 07:41:26;;;;;;;10.10;7.10;;;;;;;24.45;60.54;96767.66;110138;1248;72235;-69
2022/08/21 07:43:57;;;;;;;10.40;5.60;;;;;;;24.53;60.38;96769.10;110141;1248;69507;-68
2022/08/21 07:46:26;;;;;;;10.10;6.20;;;;;;;24.70;60.43;96767.55;109878;1250;69718;-69
2022/08/21 07:48:55;;;;;;;7.70;6.40;;;;;;;24.82;58.90;96769.43;109788;1248;59749;-71
2022/08/21 07:51:26;;;;;;;;;;;;;;;24.89;59.94;96766.99;110145;1248;59691;-66
2022/08/21 07:53:59;;;;;;;6.90;5.30;;;;;;;24.88;57.97;96766.02;109930;1250;72248;-68
2022/08/21 07:56:30;;;;;;;7.70;6.30;;;;;;;24.90;57.80;96761.64;110155;1248;69447;-65
2022/08/21 07:59:02;;;;;;;9.90;6.20;;;;;;;25.03;57.23;96763.60;110086;1248;69887;-66
2022/08/21 08:01:31;;;;;;;9.30;5.80;;;;;;;25.23;56.76;96758.98;110002;1250;59753;-67
2022/08/21 08:03:59;;;;;;;8.10;5.20;;;;;;;25.56;57.16;96756.17;110155;1249;59744;-67
2022/08/21 08:06:28;;;;;;;10.70;6.10;;;;;;;25.87;56.48;96754.83;109784;1250;71342;-66
2022/08/21 08:08:57;;;;;;;11.10;6.40;;;;;;;25.94;54.90;96751.98;109965;1250;69375;-66
2022/08/21 08:11:26;;;;;;;8.50;6.00;;;;;;;26.22;54.75;96757.23;109784;1250;69541;-67
2022/08/21 08:13:57;;;;;;;9.00;4.80;;;;;;;26.42;54.28;96758.37;109866;1250;59745;-66
2022/08/21 08:16:26;;;;;;;8.20;5.00;;;;;;;26.59;53.20;96759.21;109865;1250;59763;-67
2022/08/21 08:18:55;;;;;;;;;;;;;;;26.81;52.64;96752.73;109879;1250;72496;-65
2022/08/21 08:21:24;;;;;;;10.30;5.80;;;;;;;26.71;52.34;96749.80;109962;1250;69701;-66
2022/08/21 08:23:53;;;;;;;6.40;4.90;;;;;;;26.19;52.74;96743.60;109795;1250;69323;-66
2022/08/21 08:26:22;;;;;;;7.60;5.80;;;;;;;26.32;53.03;96737.64;110148;1250;59709;-66
2022/08/21 08:28:53;;;;;;;8.80;5.50;;;;;;;26.36;52.75;96732.86;109778;1250;59691;-66
2022/08/21 08:31:23;;;;;;;8.00;5.00;;;;;;;26.57;51.82;96735.30;110082;1247;71134;-66
2022/08/21 08:33:52;;;;;;;8.50;5.40;;;;;;;26.52;51.58;96734.32;109998;1249;68941;-66
2022/08/21 08:36:34;;;;;;;6.90;4.50;;;;;;;26.86;52.05;96730.91;110051;1248;70108;-66
2022/08/21 08:39:04;;;;;;;7.20;5.00;;;;;;;27.00;51.82;96728.65;109871;1250;59680;-66
2022/08/21 08:41:37;;;;;;;7.80;5.70;;;;;;;27.05;51.09;96725.23;110035;1250;59691;-67
2022/08/21 08:44:07;;;;;;;7.00;5.40;;;;;;;27.21;50.67;96725.95;110027;1250;71534;-67
2022/08/21 08:46:44;;;;;;;7.90;5.90;;;;;;;26.94;51.05;96727.17;109986;1249;69191;-67
2022/08/21 08:49:20;;;;;;;8.40;5.70;;;;;;;26.72;50.91;96732.84;110023;1250;69533;-65
2022/08/21 08:52:18;;;;;;;8.80;5.20;;;;;;;26.73;50.82;96735.28;109736;1250;59853;-66
2022/08/21 08:55:31;;;;;;;7.60;5.10;;;;;;;27.30;50.74;96726.45;109989;1249;59745;-66
2022/08/21 08:58:02;;;;;;;7.50;5.50;;;;;;;27.49;49.44;96725.98;108993;1260;71388;-67
2022/08/21 09:00:32;;;;;;;7.30;5.20;;;;;;;28.15;48.81;96722.83;109939;1250;69232;-66
2022/08/21 09:03:02;;;;;;;7.30;5.20;;;;;;;28.66;48.65;96723.77;109756;1247;70027;-66
2022/08/21 09:05:49;;;;;;;8.20;4.90;;;;;;;29.10;48.44;96721.73;110042;1248;59750;-66
2022/08/21 09:08:49;;;;;;;8.10;5.20;;;;;;;29.33;46.88;96719.38;109944;1247;59637;-69
2022/08/21 09:11:59;;;;;;;7.10;4.90;;;;;;;29.20;45.61;96718.95;109847;1249;72272;-68
2022/08/21 09:14:40;;;;;;;8.50;4.70;;;;;;;29.03;46.55;96719.02;110341;1248;69984;-67
2022/08/21 09:17:46;;;;;;;6.40;5.60;;;;;;;29.06;47.09;96718.21;110205;1247;69420;-67
2022/08/21 09:20:32;;;;;;;5.80;4.90;;;;;;;29.23;46.56;96712.48;110161;1248;59680;-67
2022/08/21 09:23:46;;;;;;;10.50;4.30;;;;;;;29.42;44.66;96705.72;109845;1250;59670;-67
2022/08/21 09:26:18;;;;;;;8.10;5.20;;;;;;;29.53;44.53;96699.20;110095;1248;71362;-67
2022/08/21 09:28:58;;;;;;;6.80;5.20;;;;;;;29.74;45.15;96693.45;110138;1247;69327;-68
2022/08/21 09:31:38;;;;;;;6.90;5.70;;;;;;;29.94;45.24;96689.48;110294;1250;69675;-68
2022/08/21 09:34:11;;;;;;;7.40;5.20;;;;;;;30.15;44.56;96684.18;110042;1247;59682;-68
2022/08/21 09:36:44;;;;;;;9.60;5.90;;;;;;;30.66;43.00;96684.10;110119;1248;59627;-68
2022/08/21 09:39:23;;;;;;;8.60;5.20;;;;;;;31.05;42.35;96678.20;110015;1249;71143;-67
2022/08/21 09:42:06;;;;;;;6.50;4.50;;;;;;;30.98;41.42;96672.53;109908;1250;69306;-66
2022/08/21 09:44:43;;;;;;;7.30;5.10;;;;;;;31.40;41.89;96669.27;110103;1248;69705;-67
2022/08/21 09:47:12;;;;;;;7.00;5.60;;;;;;;31.69;41.99;96670.31;109735;1250;59687;-68
2022/08/21 09:49:43;;;;;;;7.20;5.60;;;;;;;31.60;42.15;96665.69;110087;1248;59765;-66
2022/08/21 09:52:22;;;;;;;7.60;4.40;;;;;;;31.45;42.24;96663.50;110098;1250;70800;-68
2022/08/21 09:54:54;;;;;;;5.00;4.50;;;;;;;31.94;41.03;96660.45;110000;1250;69263;-68
2022/08/21 09:57:39;;;;;;;6.90;5.00;;;;;;;31.71;40.63;96658.45;109530;1252;68688;-67
2022/08/21 10:00:29;;;;;;;8.40;5.40;;;;;;;31.90;40.75;96654.95;109770;1250;59770;-67
2022/08/21 10:03:08;;;;;;;6.80;4.30;;;;;;;32.74;41.04;96651.16;109751;1250;59724;-69
2022/08/21 10:05:39;;;;;;;15.20;11.10;;;;;;;32.64;39.51;96649.88;109781;1250;72277;-68
2022/08/21 10:08:18;;;;;;;6.90;6.10;;;;;;;32.48;38.69;96644.52;109817;1250;69437;-68
2022/08/21 10:10:53;;;;;;;9.80;6.20;;;;;;;31.78;40.62;96638.89;109667;1251;69308;-69
2022/08/21 10:13:56;;;;;;;6.60;5.20;;;;;;;31.86;41.22;96638.14;109844;1250;59724;-68
2022/08/21 10:16:48;;;;;;;8.80;6.30;;;;;;;31.06;41.84;96638.04;109701;1251;59758;-67
2022/08/21 10:19:42;;;;;;;7.20;6.30;;;;;;;30.83;41.84;96637.61;109740;1250;70613;-67
2022/08/21 10:22:54;;;;;;;10.40;6.60;;;;;;;30.75;42.67;96634.93;109723;1250;69249;-67
2022/08/21 10:25:42;;;;;;;9.20;7.40;;;;;;;30.35;43.00;96634.96;109333;1256;69971;-68
2022/08/21 10:28:43;;;;;;;9.30;8.40;;;;;;;30.21;44.24;96637.20;110154;1250;59722;-68
2022/08/21 10:31:31;;;;;;;8.20;6.60;;;;;;;29.36;45.38;96629.08;109908;1250;59786;-68
2022/08/21 10:34:21;;;;;;;9.90;6.60;;;;;;;29.23;45.73;96629.35;109812;1251;71755;-67
2022/08/21 10:37:11;;;;;;;9.60;6.60;;;;;;;29.23;45.64;96626.13;109846;1250;68664;-68
2022/08/21 10:39:50;;;;;;;8.50;5.00;;;;;;;29.56;45.63;96624.60;109729;1250;69856;-68
2022/08/21 10:42:32;;;;;;;9.20;6.90;;;;;;;29.81;45.38;96619.54;109850;1251;59753;-66
2022/08/21 10:45:11;;;;;;;8.40;5.80;;;;;;;30.01;44.62;96615.70;109824;1250;59690;-68
2022/08/21 10:47:48;;;;;;;6.80;5.90;;;;;;;30.40;44.07;96614.34;109734;1250;70616;-69
2022/08/21 10:50:19;;;;;;;6.90;6.20;;;;;;;30.72;43.45;96605.11;109823;1250;69635;-66
2022/08/21 10:52:58;;;;;;;7.00;6.20;;;;;;;31.22;44.19;96601.28;109753;1250;69311;-67
2022/08/21 10:55:33;;;;;;;5.70;5.10;;;;;;;31.44;42.19;96594.21;109760;1251;59756;-67
2022/08/21 10:58:11;;;;;;;7.00;5.30;;;;;;;31.67;42.31;96589.38;110196;1248;59716;-68
2022/08/21 11:00:46;;;;;;;6.50;5.90;;;;;;;31.88;42.16;96584.59;109722;1250;70641;-68
2022/08/21 11:03:34;;;;;;;7.50;5.70;;;;;;;32.00;41.53;96576.45;110028;1250;68733;-68
2022/08/21 11:06:11;;;;;;;6.20;4.50;;;;;;;32.16;41.15;96575.07;110182;1250;68615;-68
2022/08/21 11:08:49;;;;;;;7.80;5.50;;;;;;;32.69;41.13;96569.55;110041;1247;59762;-70
2022/08/21 11:11:26;;;;;;;8.30;5.50;;;;;;;33.13;40.20;96563.14;109823;1251;59738;-68
2022/08/21 11:14:04;;;;;;;7.20;5.50;;;;;;;33.47;38.67;96565.13;110064;1250;71965;-67
2022/08/21 11:16:41;;;;;;;8.70;5.70;;;;;;;33.74;37.53;96562.17;109657;1251;69825;-70
2022/08/21 11:19:30;;;;;;;6.50;5.10;;;;;;;34.10;37.62;96562.13;109783;1250;68562;-68
2022/08/21 11:22:20;;;;;;;7.10;5.00;;;;;;;34.18;37.44;96561.27;109900;1248;59693;-70
2022/08/21 11:25:07;;;;;;;7.30;6.50;;;;;;;34.50;36.76;96564.70;109976;1249;59715;-70
2022/08/21 11:27:54;;;;;;;9.10;5.70;;;;;;;34.29;36.56;96563.35;110431;1250;71320;-69
2022/08/21 11:30:30;;;;;;;6.20;5.60;;;;;;;33.90;36.38;96560.90;110193;1250;70298;-68
2022/08/21 11:33:08;;;;;;;7.20;5.50;;;;;;;33.63;37.25;96560.34;110119;1248;69695;-68
2022/08/21 11:36:06;;;;;;;5.90;4.90;;;;;;;33.13;37.95;96558.98;109990;1248;60097;-67
2022/08/21 11:38:49;;;;;;;8.00;5.70;;;;;;;32.71;39.01;96560.91;110089;1248;59777;-67
2022/08/21 11:41:30;;;;;;;7.00;5.50;;;;;;;32.40;39.04;96564.61;109872;1247;71194;-69
2022/08/21 11:44:08;;;;;;;7.30;5.40;;;;;;;31.96;39.61;96566.74;110071;1248;70014;-66
2022/08/21 11:46:43;;;;;;;9.00;6.00;;;;;;;31.40;40.12;96566.17;110097;1248;69632;-68
2022/08/21 11:49:30;;;;;;;7.50;5.50;;;;;;;30.77;41.74;96565.61;110107;1250;60165;-68
2022/08/21 11:52:10;;;;;;;8.50;6.30;;;;;;;30.47;42.63;96562.41;110146;1248;59691;-68
2022/08/21 11:54:57;;;;;;;6.90;5.80;;;;;;;30.74;42.29;96554.96;109730;1250;69581;-67
2022/08/21 11:57:52;;;;;;;8.30;7.00;;;;;;;30.69;41.68;96552.34;110098;1248;69898;-67